Time;durP1;ratioP1;P1;durP2;ratioP2;P2;SDS_P1;SDS_P2;PMS_P1;PMS_P2;Temp;Humidity;BMP_temperature;BMP_pressure;BME280_temperature;BME280_humidity;BME280_pressure;Samples;Min_cycle;Max_cycle;Signal;HPM_P1;HPM_P2
2023/10/16 00:01:10;;;;;;;1.40;0.70;;;25.20;52.10;;;;;;5071476;28;20044;-70
2023/10/16 00:03:43;;;;;;;1.42;0.75;;;25.20;52.00;;;;;;5069967;28;20198;-69
2023/10/16 00:06:14;;;;;;;;;;;25.20;52.10;;;;;;5071830;28;20135;-70
2023/10/16 00:09:22;;;;;;;0.75;0.50;;;25.10;52.10;;;;;;5071361;28;19973;-70
2023/10/16 00:11:37;;;;;;;0.88;0.50;;;25.30;52.00;;;;;;5069294;28;20045;-70
2023/10/16 00:14:14;;;;;;;0.60;0.60;;;25.10;52.10;;;;;;5071458;28;20036;-69
2023/10/16 00:16:44;;;;;;;0.77;0.75;;;25.20;52.00;;;;;;5071228;28;20477;-70
2023/10/16 00:19:13;;;;;;;1.30;0.77;;;25.20;52.10;;;;;;5071136;28;20043;-68
2023/10/16 00:21:43;;;;;;;1.45;0.52;;;25.10;52.10;;;;;;5071359;28;20068;-70
2023/10/16 00:24:11;;;;;;;1.65;0.60;;;25.20;52.00;;;;;;5075298;28;20048;-69
2023/10/16 00:26:42;;;;;;;0.73;0.45;;;25.20;52.10;;;;;;5091367;28;20048;-68
2023/10/16 00:29:17;;;;;;;0.47;0.47;;;25.30;52.10;;;;;;5091254;28;20040;-69
2023/10/16 00:31:52;;;;;;;2.83;0.68;;;25.20;52.10;;;;;;5091271;28;20443;-69
2023/10/16 00:34:21;;;;;;;1.63;0.98;;;25.10;52.10;;;;;;5028592;28;20059;-70
2023/10/16 00:36:54;;;;;;;1.60;0.77;;;25.20;52.00;;;;;;5028441;28;20493;-69
2023/10/16 00:39:22;;;;;;;1.73;0.82;;;25.20;52.00;;;;;;5028479;28;20105;-69
2023/10/16 00:41:50;;;;;;;0.80;0.80;;;25.30;52.00;;;;;;4996015;28;20072;-69
2023/10/16 00:44:19;;;;;;;0.60;0.60;;;25.10;52.00;;;;;;5028396;28;20386;-70
2023/10/16 00:46:48;;;;;;;0.60;0.60;;;25.10;52.10;;;;;;5028325;28;20045;-70
2023/10/16 00:49:18;;;;;;;0.98;0.55;;;25.20;52.10;;;;;;5028383;28;20411;-70
2023/10/16 00:51:45;;;;;;;0.90;0.50;;;25.10;52.10;;;;;;5012286;28;20400;-69
2023/10/16 00:54:28;;;;;;;0.60;0.60;;;25.20;52.00;;;;;;4969736;28;20066;-70
2023/10/16 00:56:59;;;;;;;0.50;0.50;;;25.00;52.10;;;;;;4953696;28;20391;-70
2023/10/16 00:59:26;;;;;;;1.25;0.50;;;25.10;52.00;;;;;;4969492;28;20039;-70
2023/10/16 01:02:14;;;;;;;0.88;0.63;;;25.00;52.10;;;;;;4970610;28;20122;-70
2023/10/16 01:04:40;;;;;;;0.60;0.60;;;25.00;52.00;;;;;;4943889;28;20069;-69
2023/10/16 01:07:08;;;;;;;1.05;0.70;;;25.00;52.20;;;;;;4973334;28;20042;-70
2023/10/16 01:09:35;;;;;;;2.50;0.60;;;25.00;52.20;;;;;;4973262;28;20387;-69
2023/10/16 01:12:12;;;;;;;0.57;0.57;;;25.00;52.10;;;;;;4973247;28;20574;-71
2023/10/16 01:14:38;;;;;;;0.73;0.70;;;25.00;52.20;;;;;;4973118;28;20448;-70
2023/10/16 01:17:08;;;;;;;0.50;0.50;;;25.00;52.20;;;;;;4970799;28;20046;-69
2023/10/16 01:19:36;;;;;;;5.68;0.60;;;25.00;52.20;;;;;;4976375;28;20065;-69
2023/10/16 01:22:03;;;;;;;2.88;0.90;;;25.00;52.20;;;;;;4992706;28;20042;-69
2023/10/16 01:24:32;;;;;;;1.52;0.60;;;25.10;52.20;;;;;;5004533;28;20049;-70
2023/10/16 01:27:10;;;;;;;1.63;0.73;;;25.00;52.10;;;;;;5051867;28;20048;-70
2023/10/16 01:29:37;;;;;;;0.82;0.52;;;25.00;52.20;;;;;;5051669;28;20497;-70
2023/10/16 01:32:04;;;;;;;0.80;0.60;;;25.00;52.20;;;;;;5051821;28;20067;-69
2023/10/16 01:34:32;;;;;;;1.55;0.75;;;25.00;52.20;;;;;;5053033;28;20416;-70
2023/10/16 01:37:08;;;;;;;0.68;0.68;;;25.10;52.20;;;;;;5114564;28;20031;-68
2023/10/16 01:39:47;;;;;;;0.63;0.60;;;25.10;52.20;;;;;;5113286;28;20479;-70
2023/10/16 01:42:15;;;;;;;1.70;0.55;;;25.20;52.20;;;;;;5114583;28;20028;-69
2023/10/16 01:44:45;;;;;;;0.50;0.50;;;25.00;52.10;;;;;;5079498;28;20031;-70
2023/10/16 01:47:15;;;;;;;1.30;0.70;;;25.00;52.10;;;;;;5114454;28;20032;-70
2023/10/16 01:49:42;;;;;;;1.20;0.70;;;25.00;52.10;;;;;;5114351;28;20019;-70
2023/10/16 01:52:12;;;;;;;2.65;0.65;;;25.00;52.10;;;;;;5114662;28;20042;-70
2023/10/16 01:54:42;;;;;;;1.15;0.70;;;25.10;52.10;;;;;;5096321;28;20040;-70
2023/10/16 01:57:12;;;;;;;0.50;0.50;;;25.00;52.10;;;;;;5096013;28;20103;-70
2023/10/16 01:59:43;;;;;;;1.35;0.68;;;25.00;52.10;;;;;;5079183;28;20121;-70
2023/10/16 02:02:09;;;;;;;1.05;0.60;;;24.90;52.10;;;;;;5062631;28;20035;-70
2023/10/16 02:04:39;;;;;;;0.95;0.60;;;25.00;52.20;;;;;;5077888;28;20071;-69
2023/10/16 02:07:08;;;;;;;2.33;1.00;;;25.00;52.10;;;;;;5095811;28;20028;-70
2023/10/16 02:09:36;;;;;;;0.57;0.57;;;24.90;52.20;;;;;;5114353;28;20059;-69
2023/10/16 02:12:14;;;;;;;1.00;0.75;;;25.00;52.10;;;;;;5078899;28;20118;-70
2023/10/16 02:14:41;;;;;;;0.70;0.70;;;24.80;52.00;;;;;;5095190;28;20415;-70
2023/10/16 02:17:14;;;;;;;0.80;0.70;;;25.00;52.20;;;;;;5095801;28;20039;-70
2023/10/16 02:19:44;;;;;;;1.00;0.90;;;24.90;52.10;;;;;;5112710;28;20032;-70
2023/10/16 02:22:16;;;;;;;2.55;0.98;;;25.00;52.10;;;;;;5095489;28;20216;-70
2023/10/16 02:24:44;;;;;;;0.75;0.60;;;25.00;52.20;;;;;;5095273;28;20514;-70
2023/10/16 02:27:12;;;;;;;1.48;0.82;;;25.00;52.20;;;;;;5113745;28;20044;-70
2023/10/16 02:29:45;;;;;;;0.80;0.80;;;25.00;52.20;;;;;;5053619;28;20067;-70
2023/10/16 02:32:12;;;;;;;0.75;0.57;;;25.00;52.10;;;;;;5053600;28;20055;-70
2023/10/16 02:34:38;;;;;;;1.08;0.60;;;24.90;52.10;;;;;;5070660;28;20053;-69
2023/10/16 02:37:09;;;;;;;0.68;0.60;;;24.80;52.00;;;;;;5053853;28;20048;-70
2023/10/16 02:39:37;;;;;;;0.52;0.50;;;25.00;52.10;;;;;;5053700;28;20075;-70
2023/10/16 02:42:08;;;;;;;0.88;0.65;;;25.00;52.10;;;;;;5070407;28;20045;-70
2023/10/16 02:44:38;;;;;;;2.50;0.70;;;25.00;52.10;;;;;;5070185;28;20036;-70
2023/10/16 02:47:13;;;;;;;1.08;0.80;;;25.00;52.00;;;;;;5070206;28;20131;-69
2023/10/16 02:49:48;;;;;;;0.60;0.60;;;25.00;52.10;;;;;;5053418;28;20442;-70
2023/10/16 02:52:19;;;;;;;2.22;1.00;;;24.90;52.00;;;;;;5053685;28;20055;-70
2023/10/16 02:54:46;;;;;;;1.92;1.05;;;25.00;52.10;;;;;;5070199;28;20114;-70
2023/10/16 02:57:14;;;;;;;1.35;0.70;;;24.90;52.10;;;;;;5053006;28;20399;-69
2023/10/16 02:59:43;;;;;;;1.25;0.80;;;24.80;52.00;;;;;;5074331;28;20119;-70
2023/10/16 03:02:27;;;;;;;1.65;0.60;;;25.00;52.10;;;;;;5016614;28;20467;-70
2023/10/16 03:05:05;;;;;;;1.50;0.77;;;24.90;52.10;;;;;;5049911;28;20049;-71
2023/10/16 03:07:31;;;;;;;1.23;1.05;;;24.80;52.00;;;;;;5033071;28;20105;-70
2023/10/16 03:09:57;;;;;;;1.55;0.82;;;24.90;52.10;;;;;;5050101;28;20045;-70
2023/10/16 03:12:24;;;;;;;3.40;0.73;;;24.80;52.00;;;;;;5049788;28;20044;-69
2023/10/16 03:15:27;;;;;;;0.90;0.75;;;24.90;52.20;;;;;;5033218;28;20052;-70
2023/10/16 03:17:41;;;;;;;2.08;0.82;;;24.80;52.10;;;;;;5014283;28;20051;-69
2023/10/16 03:20:20;;;;;;;2.65;0.95;;;24.90;52.10;;;;;;5049806;28;20049;-69
2023/10/16 03:22:50;;;;;;;1.30;0.90;;;24.90;52.20;;;;;;5049472;28;20040;-70
2023/10/16 03:28:05;;;;;;;0.95;0.80;;;24.70;52.00;;;;;;5012831;28;20525;-69
2023/10/16 03:30:32;;;;;;;1.58;0.80;;;24.90;52.20;;;;;;5013121;28;20133;-69
2023/10/16 03:32:59;;;;;;;2.83;0.98;;;24.90;52.30;;;;;;5029419;28;20147;-69
2023/10/16 03:35:31;;;;;;;0.85;0.70;;;24.90;52.20;;;;;;4996765;28;20120;-69
2023/10/16 03:37:58;;;;;;;;;;;24.80;52.20;;;;;;5013085;28;20034;-70
2023/10/16 03:40:25;;;;;;;0.88;0.65;;;24.90;52.30;;;;;;5081520;28;20268;-70
2023/10/16 03:42:56;;;;;;;2.65;0.57;;;24.80;52.10;;;;;;5091808;28;20036;-71
2023/10/16 03:45:22;;;;;;;1.85;0.77;;;24.90;52.30;;;;;;5092016;28;20028;-70
2023/10/16 03:47:58;;;;;;;2.65;1.40;;;24.90;52.30;;;;;;5073503;28;20039;-69
2023/10/16 03:50:25;;;;;;;0.73;0.70;;;25.00;52.20;;;;;;5091422;28;20059;-69
2023/10/16 03:52:55;;;;;;;2.20;1.02;;;24.90;52.30;;;;;;5093665;28;20030;-70
2023/10/16 03:55:25;;;;;;;0.93;0.77;;;24.90;52.30;;;;;;5111942;28;20059;-69
2023/10/16 03:57:52;;;;;;;0.50;0.45;;;24.90;52.30;;;;;;5111564;28;20053;-69
2023/10/16 04:00:33;;;;;;;6.68;0.80;;;24.90;52.30;;;;;;5111993;28;20062;-68
2023/10/16 04:02:59;;;;;;;0.70;0.70;;;24.80;52.20;;;;;;5112187;28;20027;-69
2023/10/16 04:08:25;;;;;;;1.15;0.90;;;25.00;54.80;;;;;;5029023;28;20092;-68
2023/10/16 04:10:56;;;;;;;1.58;0.98;;;25.70;55.70;;;;;;5029294;28;20583;-70
2023/10/16 04:13:31;;;;;;;1.52;0.85;;;26.30;56.70;;;;;;5028967;28;20555;-69
2023/10/16 04:16:09;;;;;;;1.33;1.00;;;26.10;52.70;;;;;;5029238;28;20041;-68
2023/10/16 04:18:39;;;;;;;2.50;0.80;;;25.90;49.70;;;;;;5012127;28;20453;-69
2023/10/16 04:31:44;;;;;;;1.00;0.95;;;25.50;48.70;;;;;;5028570;28;20048;-69
2023/10/16 04:34:24;;;;;;;0.80;0.80;;;25.30;49.20;;;;;;5028464;28;20045;-68
2023/10/16 04:36:53;;;;;;;1.13;0.80;;;25.30;49.60;;;;;;5028198;28;20042;-68
2023/10/16 04:44:49;;;;;;;2.00;0.95;;;25.30;50.60;;;;;;5048634;28;20381;-69
2023/10/16 04:47:19;;;;;;;3.38;0.85;;;25.30;50.70;;;;;;5089968;28;20096;-70
2023/10/16 04:49:59;;;;;;;0.90;0.88;;;25.30;50.80;;;;;;5090113;28;20478;-70
2023/10/16 04:55:22;;;;;;;5.53;1.55;;;25.20;50.90;;;;;;5091136;28;20036;-68
2023/10/16 04:57:48;;;;;;;4.20;1.50;;;25.20;50.30;;;;;;5091045;28;20035;-69
2023/10/16 05:00:54;;;;;;;4.15;1.50;;;25.40;50.60;;;;;;5072606;28;20391;-69
2023/10/16 05:03:23;;;;;;;2.42;1.08;;;25.40;49.40;;;;;;5091030;28;20035;-68
2023/10/16 05:11:33;;;;;;;4.85;1.80;;;25.40;48.90;;;;;;5090955;28;20107;-70
2023/10/16 05:19:52;;;;;;;2.30;1.30;;;25.50;51.20;;;;;;5090644;28;20498;-69
2023/10/16 06:14:20;;;;;;;64.20;19.90;;;25.90;54.30;;;;;;5112010;28;20038;-69
2023/10/16 06:16:50;;;;;;;4.50;2.10;;;26.00;47.00;;;;;;5075331;28;20730;-69
2023/10/16 06:19:19;;;;;;;5.55;1.75;;;26.10;46.50;;;;;;5103335;28;20406;-69
2023/10/16 06:21:48;;;;;;;6.10;2.05;;;25.90;43.90;;;;;;5078713;28;20046;-69
2023/10/16 06:24:32;;;;;;;11.10;2.83;;;26.00;44.70;;;;;;5080739;28;20052;-70
2023/10/16 06:27:10;;;;;;;5.68;3.03;;;26.00;46.10;;;;;;5093325;28;20409;-68
2023/10/16 06:29:43;;;;;;;5.15;1.92;;;26.00;48.70;;;;;;5075118;28;20075;-70
2023/10/16 06:32:21;;;;;;;;;;;26.10;49.00;;;;;;5102952;28;20035;-69
2023/10/16 06:34:52;;;;;;;5.75;2.05;;;26.10;46.20;;;;;;5113710;28;19962;-70
2023/10/16 06:37:18;;;;;;;8.75;2.20;;;26.10;47.40;;;;;;5113702;28;20463;-69
2023/10/16 06:39:45;;;;;;;3.38;1.50;;;26.30;47.20;;;;;;5113597;28;20040;-69
2023/10/16 06:42:17;;;;;;;9.07;4.25;;;26.30;47.00;;;;;;5095386;28;20089;-71
2023/10/16 06:44:50;;;;;;;;;;;26.30;46.40;;;;;;5113875;28;20034;-68
2023/10/16 06:47:17;;;;;;;5.85;2.10;;;26.40;46.50;;;;;;5113267;28;20407;-69
2023/10/16 06:49:43;;;;;;;7.60;2.42;;;26.50;45.30;;;;;;5099882;28;20054;-68
2023/10/16 06:52:17;;;;;;;7.07;2.20;;;26.50;43.70;;;;;;5074876;28;20187;-69
2023/10/16 06:54:44;;;;;;;7.43;1.85;;;26.60;43.60;;;;;;5092912;28;20046;-70
2023/10/16 06:57:11;;;;;;;5.53;2.35;;;26.60;41.10;;;;;;5092871;28;20062;-69
2023/10/16 06:59:41;;;;;;;7.28;2.08;;;26.70;43.60;;;;;;5057853;28;20039;-70
2023/10/16 07:02:21;;;;;;;4.60;2.00;;;26.70;42.90;;;;;;5074634;28;20036;-70
2023/10/16 07:04:48;;;;;;;8.75;1.85;;;26.80;43.70;;;;;;5092949;28;20059;-69
2023/10/16 07:07:18;;;;;;;6.25;2.05;;;26.80;44.10;;;;;;5074378;28;20040;-69
2023/10/16 07:09:51;;;;;;;8.35;2.10;;;27.00;42.40;;;;;;5092692;28;20043;-69
2023/10/16 07:12:18;;;;;;;3.85;2.03;;;27.20;44.00;;;;;;5033123;28;20060;-68
2023/10/16 07:15:01;;;;;;;4.85;2.13;;;27.30;44.30;;;;;;5049850;28;20049;-71
2023/10/16 07:17:29;;;;;;;3.67;2.23;;;27.30;42.80;;;;;;5033576;28;20106;-72
2023/10/16 07:19:59;;;;;;;7.90;2.13;;;27.50;42.70;;;;;;5049869;28;20289;-71
2023/10/16 07:22:32;;;;;;;7.13;2.10;;;27.50;43.90;;;;;;5049833;28;20037;-71
2023/10/16 07:25:09;;;;;;;4.40;2.13;;;27.30;40.20;;;;;;5049150;28;20049;-71
2023/10/16 07:27:35;;;;;;;5.65;2.15;;;27.30;42.00;;;;;;5049764;28;20203;-72
2023/10/16 07:30:18;;;;;;;5.78;2.03;;;27.40;43.60;;;;;;5052000;28;20033;-72
2023/10/16 07:32:45;;;;;;;3.15;1.65;;;27.40;48.60;;;;;;5056775;28;20036;-71
2023/10/16 07:35:17;;;;;;;2.80;2.03;;;27.50;45.80;;;;;;5053145;28;20052;-75
2023/10/16 07:37:48;;;;;;;9.60;2.22;;;27.50;45.40;;;;;;5070461;28;20072;-74
2023/10/16 07:40:20;;;;;;;2.45;1.60;;;27.60;45.30;;;;;;5070553;28;20036;-74
2023/10/16 07:42:52;;;;;;;11.98;1.85;;;27.50;47.60;;;;;;5070210;28;20059;-72
2023/10/16 07:45:19;;;;;;;5.78;1.83;;;27.50;47.40;;;;;;5053098;28;20500;-72
2023/10/16 07:47:48;;;;;;;6.80;2.30;;;27.50;46.00;;;;;;5052741;28;20125;-74
2023/10/16 07:50:17;;;;;;;4.53;2.10;;;27.60;45.90;;;;;;5068526;28;20550;-75
2023/10/16 07:52:44;;;;;;;1.73;1.63;;;27.50;43.30;;;;;;5033199;28;20145;-76
2023/10/16 07:55:19;;;;;;;2.20;1.67;;;27.50;42.60;;;;;;5032996;28;20078;-76
2023/10/16 07:57:47;;;;;;;1.98;1.25;;;27.30;43.30;;;;;;5049883;28;20040;-73
2023/10/16 08:00:41;;;;;;;3.20;1.52;;;27.40;42.50;;;;;;5050382;28;20070;-75
2023/10/16 08:03:13;;;;;;;4.35;1.77;;;27.30;42.40;;;;;;5049829;28;20090;-80
2023/10/16 08:05:47;;;;;;;3.07;1.77;;;27.50;44.20;;;;;;5049779;28;20033;-78
2023/10/16 08:08:15;;;;;;;3.97;1.73;;;27.50;43.10;;;;;;5049966;28;20059;-78
2023/10/16 08:10:41;;;;;;;2.30;1.45;;;27.70;46.40;;;;;;5029708;28;20049;-76
2023/10/16 08:13:13;;;;;;;4.30;1.88;;;27.60;44.50;;;;;;5030018;28;20040;-75
2023/10/16 08:15:49;;;;;;;3.95;2.30;;;27.80;42.50;;;;;;5033051;28;20502;-73
2023/10/16 08:18:18;;;;;;;2.67;2.08;;;27.60;41.50;;;;;;5033438;28;20041;-74
2023/10/16 08:20:49;;;;;;;2.28;1.58;;;27.50;40.50;;;;;;5049595;28;20468;-73
2023/10/16 08:23:16;;;;;;;3.80;1.50;;;27.40;41.10;;;;;;5030589;28;20072;-74
2023/10/16 08:25:42;;;;;;;4.05;2.03;;;27.40;39.90;;;;;;5048944;28;20044;-74
2023/10/16 08:28:35;;;;;;;5.93;2.20;;;27.60;37.80;;;;;;5049564;28;20045;-74
2023/10/16 08:30:57;;;;;;;3.50;1.67;;;27.40;42.50;;;;;;5048724;28;20143;-73
2023/10/16 08:33:32;;;;;;;3.83;1.52;;;27.30;38.70;;;;;;5049307;28;20148;-73
2023/10/16 08:35:58;;;;;;;3.97;1.63;;;27.30;36.70;;;;;;5048776;28;20420;-72
2023/10/16 08:38:31;;;;;;;8.10;2.08;;;27.30;37.60;;;;;;5048668;28;20037;-73
2023/10/16 08:41:06;;;;;;;2.88;1.75;;;27.30;37.20;;;;;;5057140;28;20036;-70
2023/10/16 08:46:44;;;;;;;4.70;1.70;;;27.20;38.80;;;;;;4992719;28;20564;-71
2023/10/16 08:49:11;;;;;;;5.53;2.28;;;27.00;36.40;;;;;;5008793;28;20148;-73
2023/10/16 08:51:38;;;;;;;5.53;1.52;;;27.10;39.60;;;;;;5009066;28;20497;-74
2023/10/16 08:54:26;;;;;;;4.70;1.60;;;26.90;36.40;;;;;;5017207;28;20044;-73
2023/10/16 08:56:53;;;;;;;2.53;1.40;;;27.00;36.00;;;;;;5002597;28;20112;-73
2023/10/16 08:59:22;;;;;;;2.60;1.20;;;26.90;34.60;;;;;;4992203;28;20038;-70
2023/10/16 09:01:48;;;;;;;2.22;2.03;;;26.90;36.70;;;;;;5023624;28;20501;-73
2023/10/16 09:04:15;;;;;;;11.85;6.30;;;26.90;39.70;;;;;;5011914;28;20869;-72
2023/10/16 09:06:41;;;;;;;4.15;1.80;;;27.00;40.30;;;;;;5028673;28;20056;-74
2023/10/16 09:09:13;;;;;;;4.90;1.85;;;27.10;43.80;;;;;;5023119;28;20486;-68
2023/10/16 09:11:40;;;;;;;1.83;1.42;;;27.10;44.70;;;;;;5008365;28;20071;-70
2023/10/16 09:14:09;;;;;;;5.93;1.77;;;27.10;44.70;;;;;;4988861;28;20054;-73
2023/10/16 09:16:35;;;;;;;2.35;1.10;;;27.30;44.90;;;;;;4988819;28;20513;-70
2023/10/16 09:19:06;;;;;;;3.40;1.50;;;27.10;45.10;;;;;;4988967;28;20580;-70
2023/10/16 09:21:38;;;;;;;5.18;1.60;;;27.10;45.40;;;;;;5024699;28;20144;-70
2023/10/16 09:24:05;;;;;;;3.45;1.58;;;27.10;47.10;;;;;;5001223;28;20554;-68
2023/10/16 09:26:38;;;;;;;2.90;1.67;;;27.10;46.50;;;;;;5027001;28;20128;-70
2023/10/16 09:29:13;;;;;;;1.27;1.13;;;27.10;46.70;;;;;;5031764;28;20051;-71
2023/10/16 09:31:43;;;;;;;4.28;1.08;;;27.10;46.80;;;;;;5012196;28;20119;-72
2023/10/16 09:34:11;;;;;;;5.38;1.65;;;27.10;51.60;;;;;;4995866;28;20038;-72
2023/10/16 09:36:38;;;;;;;3.25;1.13;;;27.10;53.00;;;;;;5012275;28;20077;-74
2023/10/16 09:39:17;;;;;;;3.40;1.40;;;27.10;51.30;;;;;;4980249;28;20166;-72
2023/10/16 09:41:48;;;;;;;2.20;1.10;;;27.10;51.10;;;;;;4995308;28;20053;-71
2023/10/16 09:44:24;;;;;;;2.90;1.40;;;27.00;51.10;;;;;;4998582;28;20037;-70
2023/10/16 09:46:53;;;;;;;1.55;1.20;;;27.10;51.10;;;;;;5031601;28;20103;-71
2023/10/16 09:49:24;;;;;;;3.15;1.73;;;27.10;51.40;;;;;;5031559;28;20161;-69
2023/10/16 09:51:57;;;;;;;2.95;1.20;;;27.20;51.60;;;;;;5045453;28;20056;-70
2023/10/16 09:54:26;;;;;;;3.67;1.00;;;27.10;51.70;;;;;;5051467;28;20477;-74
2023/10/16 09:56:59;;;;;;;3.90;1.20;;;27.00;51.80;;;;;;5034656;28;20203;-74
2023/10/16 09:59:43;;;;;;;4.25;1.33;;;27.10;51.90;;;;;;5018605;28;20041;-75
2023/10/16 10:02:25;;;;;;;3.42;1.38;;;27.10;51.90;;;;;;5033028;28;20047;-73
2023/10/16 10:04:59;;;;;;;4.45;1.45;;;27.00;52.10;;;;;;5058972;28;20024;-71
2023/10/16 10:07:38;;;;;;;5.85;3.20;;;27.10;51.50;;;;;;5058955;28;20507;-71
2023/10/16 10:13:16;;;;;;;12.18;3.17;;;27.20;46.20;;;;;;4994830;28;20056;-71
2023/10/16 10:15:48;;;;;;;5.75;2.08;;;27.30;45.30;;;;;;5011441;28;20042;-70
2023/10/16 10:21:28;;;;;;;5.22;2.05;;;27.20;40.10;;;;;;4952734;29;20111;-73
2023/10/16 10:24:03;;;;;;;2.58;1.17;;;27.20;45.80;;;;;;4936925;28;20407;-72
2023/10/16 10:26:32;;;;;;;4.43;1.80;;;27.30;48.90;;;;;;4953762;29;20093;-73
2023/10/16 10:29:12;;;;;;;4.13;1.48;;;27.30;49.60;;;;;;4953677;29;20050;-73
2023/10/16 10:31:41;;;;;;;1.65;1.42;;;27.10;51.00;;;;;;4953309;29;20596;-73
2023/10/16 10:34:27;;;;;;;2.22;1.27;;;27.20;51.10;;;;;;4953014;28;20035;-74
2023/10/16 10:36:53;;;;;;;2.17;1.30;;;27.10;51.20;;;;;;4953224;29;20578;-73
2023/10/16 10:39:38;;;;;;;1.30;1.20;;;27.10;51.00;;;;;;4921157;29;20035;-70
2023/10/16 10:42:10;;;;;;;1.05;0.90;;;27.10;50.90;;;;;;4936707;29;20081;-76
2023/10/16 10:44:53;;;;;;;4.53;1.50;;;27.00;50.80;;;;;;4996872;28;20034;-73
2023/10/16 10:47:20;;;;;;;;;;;27.00;50.80;;;;;;5011620;28;20045;-72
2023/10/16 10:49:49;;;;;;;2.47;1.35;;;27.20;50.60;;;;;;5011463;28;20008;-73
2023/10/16 10:52:19;;;;;;;2.30;1.10;;;27.10;50.80;;;;;;4994458;28;20041;-72
2023/10/16 10:54:49;;;;;;;3.55;1.67;;;27.00;51.30;;;;;;5033889;28;20081;-72
2023/10/16 10:57:20;;;;;;;2.55;1.45;;;26.90;51.40;;;;;;5075482;28;20032;-72
2023/10/16 10:59:47;;;;;;;1.80;1.25;;;27.00;52.20;;;;;;5094331;28;20036;-73
2023/10/16 11:04:45;;;;;;;5.82;1.58;;;27.00;53.30;;;;;;5113904;28;20438;-72
2023/10/16 11:07:25;;;;;;;2.80;1.33;;;26.90;54.50;;;;;;5113617;28;20042;-71
2023/10/16 11:09:56;;;;;;;7.07;1.70;;;27.00;58.20;;;;;;5096121;28;20042;-71
2023/10/16 11:12:30;;;;;;;4.65;1.58;;;27.10;59.10;;;;;;5113444;28;20035;-72
2023/10/16 11:14:56;;;;;;;3.28;1.45;;;27.00;58.70;;;;;;5111225;28;20496;-72
2023/10/16 11:17:38;;;;;;;3.40;1.42;;;26.90;56.40;;;;;;5110174;28;20395;-71
2023/10/16 11:22:57;;;;;;;2.78;1.13;;;26.80;53.70;;;;;;5035522;28;20067;-71
2023/10/16 11:25:28;;;;;;;2.63;1.17;;;26.80;52.90;;;;;;5033506;28;20045;-70
2023/10/16 11:27:58;;;;;;;2.25;0.90;;;26.90;53.00;;;;;;5050229;28;20115;-74
2023/10/16 11:30:27;;;;;;;3.25;1.15;;;26.90;52.80;;;;;;5050290;28;20472;-73
2023/10/16 11:32:54;;;;;;;1.25;0.93;;;26.90;52.50;;;;;;5033625;28;20060;-72
2023/10/16 11:35:21;;;;;;;5.38;1.42;;;26.80;52.30;;;;;;5050556;28;20032;-73
2023/10/16 11:37:52;;;;;;;2.10;1.15;;;26.90;52.00;;;;;;5033986;28;20392;-72
2023/10/16 11:40:18;;;;;;;5.05;1.30;;;26.80;51.70;;;;;;5050280;28;20095;-74
2023/10/16 11:42:45;;;;;;;7.68;2.05;;;26.70;51.60;;;;;;5050035;28;20493;-71
2023/10/16 11:45:18;;;;;;;3.45;0.98;;;26.90;51.50;;;;;;5049969;28;20037;-73
2023/10/16 11:47:44;;;;;;;1.50;1.40;;;26.90;51.40;;;;;;5049439;28;20859;-72
2023/10/16 11:50:17;;;;;;;2.60;1.05;;;26.90;51.40;;;;;;5049848;28;20045;-74
2023/10/16 11:52:44;;;;;;;2.60;1.10;;;26.80;51.40;;;;;;5049964;28;20400;-74
2023/10/16 11:55:12;;;;;;;3.78;1.10;;;26.70;51.30;;;;;;5050074;28;20431;-72
2023/10/16 11:57:41;;;;;;;1.55;1.00;;;26.90;51.40;;;;;;5049875;28;20052;-74
2023/10/16 12:00:16;;;;;;;4.88;1.15;;;26.70;51.40;;;;;;5061347;28;20185;-70
2023/10/16 12:02:46;;;;;;;0.95;0.80;;;26.70;51.50;;;;;;5112187;28;20054;-68
2023/10/16 12:05:13;;;;;;;0.70;0.50;;;26.80;51.40;;;;;;5112177;28;20031;-70
2023/10/16 12:07:43;;;;;;;1.60;1.35;;;26.70;51.10;;;;;;5112901;28;20040;-70
2023/10/16 12:10:15;;;;;;;4.22;1.60;;;26.70;51.30;;;;;;5094360;28;20131;-77
2023/10/16 12:12:41;;;;;;;1.17;0.70;;;26.70;51.70;;;;;;5112671;28;20077;-76
2023/10/16 12:15:10;;;;;;;0.50;0.50;;;26.80;52.00;;;;;;5112558;28;20080;-73
2023/10/16 12:17:36;;;;;;;1.33;0.88;;;26.70;51.80;;;;;;5112891;28;20049;-75
2023/10/16 12:20:10;;;;;;;2.03;0.50;;;26.80;51.60;;;;;;5112603;28;20027;-74
2023/10/16 12:22:39;;;;;;;0.93;0.65;;;26.60;51.50;;;;;;5094914;28;20035;-77
2023/10/16 12:25:09;;;;;;;3.97;1.17;;;26.70;51.40;;;;;;5094366;28;20048;-76
2023/10/16 12:27:38;;;;;;;1.45;0.88;;;26.70;51.50;;;;;;5112812;28;20035;-75
2023/10/16 12:30:05;;;;;;;1.42;1.02;;;26.70;51.40;;;;;;5111917;28;20050;-71
2023/10/16 12:32:32;;;;;;;1.33;0.80;;;26.60;51.40;;;;;;5112477;28;20040;-70
2023/10/16 12:35:00;;;;;;;2.63;0.82;;;26.70;51.10;;;;;;5108180;28;20043;-68
2023/10/16 12:37:30;;;;;;;1.17;0.70;;;26.60;50.80;;;;;;5093528;28;20032;-67
2023/10/16 12:39:55;;;;;;;1.52;0.82;;;26.70;50.70;;;;;;5093452;28;20032;-67
2023/10/16 12:42:22;;;;;;;1.48;1.10;;;26.70;50.90;;;;;;5111533;28;20483;-67
2023/10/16 12:44:48;;;;;;;1.23;0.98;;;26.70;51.00;;;;;;5111312;28;20096;-68
2023/10/16 12:47:14;;;;;;;0.90;0.82;;;26.60;51.20;;;;;;5111343;28;20028;-68
2023/10/16 12:49:40;;;;;;;2.20;1.10;;;26.70;51.20;;;;;;5111395;28;20444;-68
2023/10/16 12:52:07;;;;;;;1.38;0.80;;;26.70;51.20;;;;;;5111166;28;20039;-70
2023/10/16 12:54:33;;;;;;;1.88;0.80;;;26.60;51.20;;;;;;5111368;28;20092;-68
2023/10/16 12:56:59;;;;;;;1.55;1.00;;;26.60;51.20;;;;;;5111168;28;20502;-68
2023/10/16 12:59:26;;;;;;;1.13;1.02;;;26.70;51.40;;;;;;5115157;28;20028;-68
2023/10/16 13:01:52;;;;;;;1.88;0.80;;;26.50;52.50;;;;;;5096899;28;20038;-67
2023/10/16 13:04:19;;;;;;;2.63;0.70;;;26.60;52.50;;;;;;5094936;28;20506;-68
2023/10/16 13:06:46;;;;;;;2.78;0.90;;;26.50;52.50;;;;;;5095199;28;20044;-68
2023/10/16 13:09:18;;;;;;;1.65;0.90;;;26.40;52.70;;;;;;5097558;28;20096;-68
2023/10/16 13:11:46;;;;;;;0.55;0.55;;;26.30;52.60;;;;;;5094671;28;20441;-71
2023/10/16 13:14:12;;;;;;;1.33;1.05;;;26.40;52.50;;;;;;5095111;28;20491;-70
2023/10/16 13:16:53;;;;;;;0.75;0.70;;;26.40;52.50;;;;;;5094982;28;20047;-69
2023/10/16 13:19:20;;;;;;;0.70;0.70;;;26.40;52.50;;;;;;5094895;28;20364;-70
2023/10/16 13:21:51;;;;;;;0.93;0.88;;;26.40;52.50;;;;;;5094765;28;20043;-70
2023/10/16 13:24:20;;;;;;;2.53;0.90;;;26.30;52.50;;;;;;5094454;28;20056;-67
2023/10/16 13:26:52;;;;;;;1.85;0.50;;;26.40;52.50;;;;;;5096942;28;20128;-69
2023/10/16 13:29:19;;;;;;;0.63;0.55;;;26.50;52.40;;;;;;5078635;28;20052;-67
2023/10/16 13:31:45;;;;;;;0.93;0.55;;;26.30;52.40;;;;;;5114783;28;20031;-69
2023/10/16 13:34:13;;;;;;;1.50;0.80;;;26.30;52.20;;;;;;5096475;28;20394;-69
2023/10/16 13:36:56;;;;;;;2.70;0.93;;;26.30;52.20;;;;;;5114935;28;20040;-70
2023/10/16 13:39:25;;;;;;;1.70;0.80;;;26.30;52.20;;;;;;5114765;28;20031;-68
2023/10/16 13:41:52;;;;;;;1.80;0.70;;;26.30;52.30;;;;;;5114539;28;20028;-68
2023/10/16 13:44:23;;;;;;;1.42;0.80;;;26.20;52.40;;;;;;5114699;28;20050;-68
2023/10/16 13:46:50;;;;;;;1.73;0.70;;;26.30;52.50;;;;;;5114438;28;20043;-67
2023/10/16 13:49:18;;;;;;;2.35;1.10;;;26.30;52.50;;;;;;5114304;28;20042;-68
2023/10/16 13:51:48;;;;;;;1.33;0.77;;;26.20;52.50;;;;;;5096294;28;20027;-67
2023/10/16 13:54:14;;;;;;;0.43;0.40;;;26.20;52.50;;;;;;5096159;28;20512;-68
2023/10/16 13:56:41;;;;;;;0.73;0.63;;;26.20;52.50;;;;;;5095945;28;20042;-68
2023/10/16 13:59:08;;;;;;;2.50;0.70;;;26.10;52.50;;;;;;5114758;28;20031;-68
2023/10/16 14:01:43;;;;;;;0.63;0.63;;;26.20;52.50;;;;;;5114552;28;20103;-68
2023/10/16 14:04:21;;;;;;;0.57;0.50;;;26.00;52.50;;;;;;5114321;28;20062;-68
2023/10/16 14:06:53;;;;;;;2.97;0.80;;;26.20;52.40;;;;;;5114104;28;20395;-68
2023/10/16 14:09:20;;;;;;;0.90;0.68;;;26.20;52.50;;;;;;5095220;28;20074;-68
2023/10/16 14:11:47;;;;;;;1.50;0.93;;;26.30;52.50;;;;;;5114237;28;20063;-68
2023/10/16 14:14:20;;;;;;;1.13;0.65;;;26.30;52.50;;;;;;5114015;28;20040;-68
2023/10/16 14:16:50;;;;;;;0.85;0.60;;;26.10;52.50;;;;;;5114060;28;20059;-67
2023/10/16 14:19:23;;;;;;;2.00;0.60;;;26.20;52.50;;;;;;5095396;28;20543;-69
2023/10/16 14:21:55;;;;;;;1.33;1.05;;;26.10;52.50;;;;;;5111199;28;20447;-68
2023/10/16 14:24:24;;;;;;;0.73;0.50;;;26.20;52.50;;;;;;5111313;28;20051;-68
2023/10/16 14:26:58;;;;;;;0.80;0.70;;;26.10;52.50;;;;;;5111459;28;20037;-68
2023/10/16 14:29:27;;;;;;;0.95;0.80;;;26.20;52.50;;;;;;5111419;28;20047;-67
2023/10/16 14:31:57;;;;;;;1.15;0.70;;;26.20;52.50;;;;;;5111074;28;20045;-67
2023/10/16 14:34:25;;;;;;;1.85;0.98;;;26.20;52.50;;;;;;5110501;28;20550;-67
2023/10/16 14:36:53;;;;;;;1.88;0.80;;;26.10;52.50;;;;;;5111160;28;20119;-68
2023/10/16 14:39:20;;;;;;;1.73;1.02;;;26.20;52.50;;;;;;5112732;28;20076;-65
2023/10/16 14:41:47;;;;;;;1.27;0.90;;;26.20;52.40;;;;;;5109728;28;20038;-67
2023/10/16 14:44:13;;;;;;;2.70;1.00;;;26.10;52.40;;;;;;5113697;28;20078;-67
2023/10/16 14:46:39;;;;;;;3.15;1.60;;;26.00;52.50;;;;;;5113221;28;20023;-69
2023/10/16 14:49:09;;;;;;;4.72;1.25;;;26.00;52.50;;;;;;5113775;28;20118;-68